Time;durP1;ratioP1;P1;durP2;ratioP2;P2;SDS_P1;SDS_P2;PMS_P1;PMS_P2;Temp;Humidity;BMP_temperature;BMP_pressure;BME280_temperature;BME280_humidity;BME280_pressure;Samples;Min_cycle;Max_cycle;Signal;HPM_P1;HPM_P2
2023/05/13 00:02:23;;;;;;;7.93;6.15;;;;;;;11.55;66.22;101831.50;4842579;29;20033;-89
2023/05/13 00:04:49;;;;;;;7.30;6.60;;;;;;;11.53;66.17;101829.84;4843226;29;20042;-89
2023/05/13 00:07:15;;;;;;;8.70;6.60;;;;;;;11.48;66.30;101828.66;4844206;29;20534;-88
2023/05/13 00:10:09;;;;;;;9.93;7.88;;;;;;;11.51;66.47;101825.63;4899947;24;20083;-89
2023/05/13 00:15:35;;;;;;;6.65;6.05;;;;;;;11.37;66.40;101829.94;4821767;29;20507;-90
2023/05/13 00:18:01;;;;;;;7.30;6.60;;;;;;;11.33;66.29;101826.75;4834137;29;20054;-89
2023/05/13 00:20:26;;;;;;;8.02;6.47;;;;;;;11.29;66.80;101819.19;4833989;29;20041;-90
2023/05/13 00:22:51;;;;;;;7.70;5.97;;;;;;;11.22;66.75;101827.16;4841778;29;20388;-88
2023/05/13 00:25:17;;;;;;;8.07;7.05;;;;;;;11.16;67.07;101827.84;4838643;29;20037;-89
2023/05/13 00:27:42;;;;;;;8.35;6.82;;;;;;;11.08;67.53;101834.13;4829418;29;20057;-90
2023/05/13 00:30:08;;;;;;;9.60;6.82;;;;;;;11.04;67.48;101819.31;4826513;29;20035;-89
2023/05/13 00:32:33;;;;;;;8.27;6.93;;;;;;;10.95;67.92;101821.22;4826575;29;20038;-89
2023/05/13 00:34:59;;;;;;;7.82;6.75;;;;;;;10.91;68.11;101826.13;4835792;29;20053;-90
2023/05/13 00:37:24;;;;;;;8.15;6.90;;;;;;;10.86;68.41;101822.28;4844093;29;20041;-89
2023/05/13 00:39:49;;;;;;;8.88;7.43;;;;;;;10.77;67.93;101830.38;4837825;29;20087;-89
2023/05/13 00:42:15;;;;;;;7.15;6.45;;;;;;;10.73;68.32;101833.59;4830169;29;20025;-89
2023/05/13 00:44:40;;;;;;;9.35;8.38;;;;;;;10.66;68.65;101822.69;4831710;29;20364;-90
2023/05/13 00:47:05;;;;;;;9.73;7.88;;;;;;;10.67;68.83;101826.22;4826195;29;20031;-89
2023/05/13 00:49:32;;;;;;;8.55;7.05;;;;;;;10.60;68.86;101834.13;4811103;29;20471;-90
2023/05/13 00:51:57;;;;;;;10.63;8.23;;;;;;;10.54;69.42;101838.38;4829338;29;20069;-87
2023/05/13 00:54:23;;;;;;;10.32;9.05;;;;;;;10.47;69.75;101834.69;4838847;29;20026;-88
2023/05/13 00:56:53;;;;;;;9.43;8.18;;;;;;;10.42;69.71;101835.19;4844176;29;20053;-88
2023/05/13 00:59:18;;;;;;;8.68;7.50;;;;;;;10.38;70.23;101830.31;4830120;29;20045;-88
2023/05/13 01:01:50;;;;;;;10.85;8.18;;;;;;;10.37;70.10;101829.47;4826998;29;20117;-89
2023/05/13 01:04:20;;;;;;;10.55;9.02;;;;;;;10.37;70.30;101831.31;4825501;29;20029;-88
2023/05/13 01:07:11;;;;;;;11.77;8.38;;;;;;;10.30;70.43;101831.16;4842218;29;20042;-89
2023/05/13 01:09:56;;;;;;;10.00;8.70;;;;;;;10.24;70.82;101829.13;4823648;29;20129;-88
2023/05/13 01:12:28;;;;;;;11.73;8.20;;;;;;;10.20;70.69;101833.19;4838526;29;20077;-89
2023/05/13 01:15:17;;;;;;;10.20;9.20;;;;;;;10.10;71.55;101826.13;4825170;29;20030;-88
2023/05/13 01:17:51;;;;;;;10.25;8.63;;;;;;;10.06;71.33;101827.47;4811846;29;20041;-88
2023/05/13 01:20:19;;;;;;;9.80;8.80;;;;;;;10.01;72.21;101824.47;4859164;29;20074;-88
2023/05/13 01:22:44;;;;;;;14.55;10.10;;;;;;;9.98;72.34;101827.50;4818892;29;20090;-88
2023/05/13 01:25:12;;;;;;;10.73;9.32;;;;;;;10.00;72.16;101817.41;4842964;29;20086;-88
2023/05/13 01:27:38;;;;;;;14.73;10.70;;;;;;;10.03;72.54;101825.16;4842697;29;20059;-88
2023/05/13 01:30:07;;;;;;;12.00;10.00;;;;;;;9.99;72.58;101823.81;4842073;29;20022;-89
2023/05/13 01:32:33;;;;;;;13.05;11.05;;;;;;;9.94;72.63;101828.84;4830739;29;20391;-88
2023/05/13 01:34:58;;;;;;;11.18;10.10;;;;;;;9.92;72.50;101839.78;4824512;29;20034;-89
2023/05/13 01:37:23;;;;;;;11.88;9.70;;;;;;;9.91;73.08;101839.94;4823493;29;20040;-89
2023/05/13 01:39:48;;;;;;;;;;;;;;;9.82;73.19;101837.25;4822357;29;20041;-89
2023/05/13 01:42:14;;;;;;;15.30;9.57;;;;;;;9.76;72.92;101834.41;4812095;29;19920;-89
2023/05/13 01:44:40;;;;;;;12.63;9.57;;;;;;;9.68;73.53;101836.06;4826297;29;20089;-88
2023/05/13 01:47:05;;;;;;;11.30;9.30;;;;;;;9.65;73.57;101835.56;4843103;29;20034;-89
2023/05/13 01:49:30;;;;;;;;;;;;;;;9.62;74.07;101843.94;4830703;29;20041;-88
2023/05/13 01:51:56;;;;;;;15.40;10.87;;;;;;;9.53;73.83;101835.88;4839532;29;19928;-88
2023/05/13 01:54:21;;;;;;;;;;;;;;;9.47;74.48;101833.84;4845357;29;20366;-89
2023/05/13 01:56:47;;;;;;;11.20;9.60;;;;;;;9.44;74.28;101833.34;4839845;29;19932;-89
2023/05/13 01:59:12;;;;;;;14.52;10.90;;;;;;;9.35;74.62;101837.88;4843770;29;20041;-89
2023/05/13 02:01:41;;;;;;;13.23;10.18;;;;;;;9.31;74.80;101839.19;4843283;29;20076;-88
2023/05/13 02:04:06;;;;;;;13.52;10.35;;;;;;;9.24;75.04;101839.84;4844319;29;20110;-90
2023/05/13 02:06:31;;;;;;;12.48;10.75;;;;;;;9.22;75.77;101831.09;4840796;29;20026;-88
2023/05/13 02:08:57;;;;;;;13.57;11.90;;;;;;;9.23;75.62;101832.78;4829861;29;20027;-89
2023/05/13 02:11:22;;;;;;;;;;;;;;;9.13;76.09;101824.03;4832893;29;20054;-88
2023/05/13 02:13:47;;;;;;;13.47;10.67;;;;;;;9.16;76.48;101830.91;4839526;29;20270;-84
2023/05/13 02:16:17;;;;;;;;;;;;;;;9.09;76.35;101830.72;4839935;29;20286;-84
2023/05/13 02:18:42;;;;;;;13.95;11.85;;;;;;;9.16;76.57;101837.16;4844457;29;20439;-90
2023/05/13 02:21:08;;;;;;;15.30;12.63;;;;;;;9.11;76.77;101839.47;4842596;29;20129;-89
2023/05/13 02:23:33;;;;;;;;;;;;;;;9.05;76.60;101829.38;4843712;29;20034;-90
2023/05/13 02:25:59;;;;;;;15.05;11.13;;;;;;;9.08;76.51;101839.78;4835189;29;19919;-90
2023/05/13 02:28:24;;;;;;;;;;;;;;;8.99;76.85;101827.34;4849415;29;20034;-83
2023/05/13 02:30:50;;;;;;;12.57;10.30;;;;;;;8.97;76.93;101832.03;4842350;29;20254;-85
2023/05/13 02:33:15;;;;;;;13.30;11.52;;;;;;;8.98;77.22;101833.72;4849949;29;20040;-84
2023/05/13 02:35:43;;;;;;;16.70;11.70;;;;;;;8.93;77.12;101826.13;4858426;29;20026;-85
2023/05/13 02:38:09;;;;;;;15.85;11.68;;;;;;;8.88;76.94;101825.78;4848871;29;20022;-84
2023/05/13 02:40:34;;;;;;;14.38;12.75;;;;;;;8.84;77.22;101827.94;4847411;29;20124;-84
2023/05/13 02:42:59;;;;;;;;;;;;;;;8.79;78.11;101827.59;4849815;29;20479;-85
2023/05/13 02:45:25;;;;;;;14.50;12.10;;;;;;;8.77;78.28;101827.75;4848922;29;19920;-86
2023/05/13 02:47:53;;;;;;;12.85;11.02;;;;;;;8.71;77.84;101828.41;4850358;29;20363;-85
2023/05/13 02:50:18;;;;;;;13.68;11.77;;;;;;;8.63;78.47;101821.16;4837043;29;20018;-85
2023/05/13 02:52:47;;;;;;;16.20;13.57;;;;;;;8.58;77.98;101828.84;4844455;29;20034;-85
2023/05/13 02:55:12;;;;;;;15.95;12.13;;;;;;;8.54;79.14;101819.41;4844684;29;20034;-85
2023/05/13 02:57:38;;;;;;;15.50;13.18;;;;;;;8.48;78.60;101820.03;4843512;29;20074;-84
2023/05/13 03:00:06;;;;;;;;;;;;;;;8.45;78.75;101818.50;4843603;29;20029;-85
2023/05/13 03:02:33;;;;;;;16.40;12.98;;;;;;;8.44;79.49;101822.19;4845813;29;20471;-85
2023/05/13 03:04:58;;;;;;;15.40;12.80;;;;;;;8.43;79.93;101817.00;4845347;29;20125;-84
2023/05/13 03:07:23;;;;;;;;;;;;;;;8.37;80.03;101826.53;4822991;29;20060;-85
2023/05/13 03:09:49;;;;;;;16.17;12.77;;;;;;;8.35;79.83;101823.97;4826701;29;19920;-85
2023/05/13 03:12:14;;;;;;;;;;;;;;;8.28;79.87;101822.94;4828543;29;20305;-84
2023/05/13 03:14:41;;;;;;;13.25;11.35;;;;;;;8.28;80.16;101822.94;4844335;29;19923;-85
2023/05/13 03:17:07;;;;;;;15.40;12.95;;;;;;;8.25;80.18;101822.41;4828488;29;20044;-85
2023/05/13 03:19:32;;;;;;;;;;;;;;;8.17;80.66;101823.19;4838666;29;20037;-85
2023/05/13 03:21:58;;;;;;;15.35;12.27;;;;;;;8.10;80.15;101814.09;4841200;29;19924;-85
2023/05/13 03:24:23;;;;;;;17.40;13.27;;;;;;;8.12;80.65;101812.94;4834408;29;20500;-85
2023/05/13 03:26:48;;;;;;;;;;;;;;;8.08;80.92;101816.09;4842635;29;20041;-86
2023/05/13 03:29:14;;;;;;;16.23;13.30;;;;;;;8.11;80.83;101815.78;4842889;29;19917;-84
2023/05/13 03:31:40;;;;;;;;;;;;;;;8.09;81.20;101815.09;4840145;29;20030;-84
2023/05/13 03:34:05;;;;;;;15.40;12.07;;;;;;;8.08;80.89;101821.44;4833833;29;20325;-84
2023/05/13 03:36:31;;;;;;;;;;;;;;;8.07;81.13;101817.91;4836384;29;20579;-84
2023/05/13 03:38:56;;;;;;;17.92;12.90;;;;;;;8.12;81.50;101828.19;4828072;29;19967;-85
2023/05/13 03:41:21;;;;;;;;;;;;;;;8.11;81.21;101818.47;4837470;29;20140;-86
2023/05/13 03:43:47;;;;;;;18.33;13.90;;;;;;;8.15;81.65;101822.50;4831234;29;20361;-85
2023/05/13 03:46:12;;;;;;;17.70;14.73;;;;;;;8.22;81.06;101820.88;4842387;29;20056;-85
2023/05/13 03:48:37;;;;;;;;;;;;;;;8.17;80.96;101817.81;4841899;29;20038;-85
2023/05/13 03:51:03;;;;;;;17.50;14.13;;;;;;;8.16;80.75;101817.00;4834773;29;20360;-84
2023/05/13 03:53:28;;;;;;;;;;;;;;;8.12;80.89;101825.50;4845454;29;20030;-84
2023/05/13 03:55:53;;;;;;;17.20;12.97;;;;;;;8.09;81.05;101818.59;4840703;29;19921;-84
2023/05/13 03:58:20;;;;;;;;;;;;;;;8.10;81.48;101824.81;4836707;29;20668;-85
2023/05/13 04:00:46;;;;;;;15.93;13.87;;;;;;;8.12;81.56;101820.97;4829714;29;19920;-84
2023/05/13 04:03:11;;;;;;;;;;;;;;;8.17;81.36;101823.19;4843387;29;20363;-85
2023/05/13 04:05:36;;;;;;;16.42;12.88;;;;;;;8.21;81.12;101827.25;4833452;29;19921;-85
2023/05/13 04:08:02;;;;;;;;;;;;;;;8.21;81.16;101827.25;4825818;29;20187;-84
2023/05/13 04:10:27;;;;;;;16.70;14.17;;;;;;;8.23;81.08;101832.44;4840702;29;19947;-86
2023/05/13 04:12:52;;;;;;;;;;;;;;;8.27;81.07;101831.13;4843401;29;20475;-85
2023/05/13 04:15:17;;;;;;;15.37;13.43;;;;;;;8.33;81.05;101831.34;4841664;29;19924;-85
2023/05/13 04:17:43;;;;;;;;;;;;;;;8.40;81.11;101833.41;4842905;29;20060;-84
2023/05/13 04:20:08;;;;;;;20.47;14.63;;;;;;;8.51;80.71;101837.69;4841034;29;19920;-84
2023/05/13 04:22:33;;;;;;;;;;;;;;;8.54;80.89;101838.22;4843100;29;20030;-84
2023/05/13 04:24:59;;;;;;;17.93;14.43;;;;;;;8.62;80.47;101846.31;4831271;29;19921;-84
2023/05/13 04:27:24;;;;;;;18.85;15.02;;;;;;;8.74;79.96;101843.34;4824995;29;20417;-84
2023/05/13 04:29:50;;;;;;;20.33;14.35;;;;;;;8.84;79.45;101843.22;4842352;29;20042;-84
2023/05/13 04:32:20;;;;;;;;;;;;;;;8.97;79.57;101848.16;4842896;29;20121;-84
2023/05/13 04:34:49;;;;;;;16.73;13.65;;;;;;;9.10;78.96;101843.16;4825793;29;19927;-84
2023/05/13 04:37:15;;;;;;;15.95;12.73;;;;;;;9.27;77.98;101851.28;4824935;29;20111;-83
2023/05/13 04:39:40;;;;;;;16.63;13.10;;;;;;;9.38;77.62;101842.88;4841726;29;20038;-83
2023/05/13 04:42:08;;;;;;;17.80;13.30;;;;;;;9.52;77.81;101841.41;4838504;29;20037;-85
2023/05/13 04:44:33;;;;;;;16.08;13.48;;;;;;;9.64;77.36;101852.69;4843616;29;20041;-84
2023/05/13 04:46:59;;;;;;;14.40;12.82;;;;;;;9.81;76.33;101853.53;4843177;29;20053;-84
2023/05/13 04:49:24;;;;;;;14.57;12.93;;;;;;;9.98;75.87;101857.91;4828551;29;20059;-84
2023/05/13 04:51:50;;;;;;;16.08;13.40;;;;;;;10.12;75.20;101858.28;4830175;29;20032;-84
2023/05/13 04:54:15;;;;;;;;;;;;;;;10.28;74.66;101860.09;4824743;29;20460;-84
2023/05/13 04:56:40;;;;;;;14.70;12.93;;;;;;;10.39;74.30;101867.84;4826611;29;19917;-84
2023/05/13 04:59:10;;;;;;;14.57;13.05;;;;;;;10.53;74.14;101860.91;4838986;29;20154;-85
2023/05/13 05:01:35;;;;;;;15.13;13.52;;;;;;;10.64;73.63;101873.19;4836116;29;20395;-85
2023/05/13 05:04:01;;;;;;;14.55;12.43;;;;;;;11.05;72.95;101864.97;4832996;29;20026;-84
2023/05/13 05:06:26;;;;;;;14.95;12.75;;;;;;;11.85;70.34;101875.59;4835567;29;20028;-84
2023/05/13 05:08:52;;;;;;;13.05;11.85;;;;;;;12.63;67.96;101869.22;4841806;29;20143;-84
2023/05/13 05:11:17;;;;;;;14.30;12.82;;;;;;;13.00;65.41;101872.84;4841846;29;20046;-85
2023/05/13 05:13:43;;;;;;;15.85;12.75;;;;;;;13.30;64.50;101878.19;4829633;29;20038;-84
2023/05/13 05:16:08;;;;;;;15.30;12.77;;;;;;;13.29;64.06;101881.91;4837531;29;20539;-85
2023/05/13 05:18:35;;;;;;;15.50;12.57;;;;;;;13.22;64.21;101881.84;4837935;29;20030;-84
2023/05/13 05:21:01;;;;;;;17.10;12.40;;;;;;;13.15;64.88;101884.47;4840563;29;20030;-85
2023/05/13 05:23:26;;;;;;;15.80;12.27;;;;;;;12.88;65.21;101873.28;4840475;29;20178;-85
2023/05/13 05:25:52;;;;;;;14.73;13.10;;;;;;;12.75;65.56;101881.22;4842330;29;20483;-85
2023/05/13 05:28:20;;;;;;;14.88;13.25;;;;;;;12.66;66.24;101882.34;4835093;29;20029;-84
2023/05/13 05:30:45;;;;;;;17.27;13.82;;;;;;;12.40;66.94;101883.63;4836592;29;20710;-85
2023/05/13 05:33:10;;;;;;;15.48;13.68;;;;;;;12.18;67.47;101880.75;4850432;29;20040;-84
2023/05/13 05:35:37;;;;;;;15.50;13.45;;;;;;;12.15;67.76;101881.16;4857740;29;20037;-86
2023/05/13 05:38:06;;;;;;;18.45;13.95;;;;;;;12.25;68.09;101889.00;4855568;29;20045;-85
2023/05/13 05:40:31;;;;;;;14.80;13.30;;;;;;;12.48;67.35;101886.25;4861625;29;20049;-84
2023/05/13 05:42:57;;;;;;;14.60;13.05;;;;;;;12.67;67.17;101887.56;4828409;29;20063;-84
2023/05/13 05:45:22;;;;;;;14.55;13.05;;;;;;;12.65;66.66;101888.78;4827177;29;20035;-85
2023/05/13 05:47:48;;;;;;;15.98;13.43;;;;;;;12.71;67.33;101888.88;4829471;29;20121;-85
2023/05/13 05:50:13;;;;;;;16.38;13.38;;;;;;;12.72;66.98;101885.16;4834662;29;20460;-85
2023/05/13 05:52:38;;;;;;;15.57;13.88;;;;;;;12.70;66.88;101887.19;4830621;29;20033;-84
2023/05/13 05:55:06;;;;;;;14.45;12.98;;;;;;;12.72;66.53;101890.53;4831874;29;20044;-84
2023/05/13 05:57:31;;;;;;;15.80;12.60;;;;;;;12.85;66.80;101895.31;4825938;29;20050;-84
2023/05/13 05:59:56;;;;;;;14.73;12.23;;;;;;;13.14;67.21;101888.19;4838625;29;20030;-85
2023/05/13 06:02:22;;;;;;;13.98;12.50;;;;;;;13.98;63.92;101896.00;4838744;29;20026;-85
2023/05/13 06:04:47;;;;;;;15.20;12.85;;;;;;;15.43;59.91;101898.19;4822437;29;20030;-85
2023/05/13 06:07:12;;;;;;;14.02;11.23;;;;;;;16.95;55.93;101899.50;4830009;29;20041;-84
2023/05/13 06:09:38;;;;;;;13.95;11.68;;;;;;;18.17;51.57;101906.81;4831326;29;20041;-85
2023/05/13 06:12:04;;;;;;;11.85;10.65;;;;;;;18.92;49.60;101910.50;4830716;29;20034;-85
2023/05/13 06:14:29;;;;;;;11.63;10.15;;;;;;;19.67;47.14;101902.25;4829731;29;20026;-85
2023/05/13 06:16:57;;;;;;;11.20;9.98;;;;;;;20.17;45.17;101898.34;4840917;29;20042;-85
2023/05/13 06:19:23;;;;;;;12.70;10.32;;;;;;;20.10;45.98;101901.19;4841644;29;20114;-88
2023/05/13 06:21:48;;;;;;;11.77;10.65;;;;;;;20.48;45.56;101896.34;4846372;29;20057;-92
2023/05/13 06:24:25;;;;;;;12.27;10.15;;;;;;;20.98;43.92;101895.00;4873629;24;20058;-89
2023/05/13 06:26:52;;;;;;;10.95;9.90;;;;;;;21.43;42.30;101890.69;4842224;29;20034;-87
2023/05/13 06:29:23;;;;;;;10.48;9.55;;;;;;;21.65;41.76;101893.59;4822858;29;20062;-86
2023/05/13 06:31:48;;;;;;;10.05;9.05;;;;;;;22.35;40.51;101898.81;4836145;29;20118;-87
2023/05/13 06:34:15;;;;;;;12.85;9.52;;;;;;;22.37;40.23;101904.91;4840623;29;20123;-86
2023/05/13 06:36:42;;;;;;;10.30;9.30;;;;;;;22.39;40.13;101910.16;4838873;29;20046;-86
2023/05/13 06:39:07;;;;;;;10.23;9.32;;;;;;;23.05;39.47;101909.44;4840324;29;20105;-85
2023/05/13 06:41:33;;;;;;;11.65;9.32;;;;;;;22.76;40.06;101912.38;4840689;29;20127;-86
2023/05/13 06:43:58;;;;;;;10.10;9.00;;;;;;;23.19;39.61;101914.53;4834049;29;20035;-85
2023/05/13 06:46:24;;;;;;;11.75;9.40;;;;;;;23.68;37.67;101911.78;4822455;29;20033;-84
2023/05/13 06:48:52;;;;;;;9.95;8.93;;;;;;;23.93;37.69;101918.63;4822133;29;20027;-85
2023/05/13 06:51:17;;;;;;;10.38;9.18;;;;;;;24.38;37.15;101914.59;4831599;29;20141;-84
2023/05/13 06:53:43;;;;;;;9.82;8.82;;;;;;;24.43;36.56;101919.34;4826010;29;20419;-85
2023/05/13 06:56:08;;;;;;;10.23;8.35;;;;;;;24.80;35.81;101910.19;4835781;29;20026;-86
2023/05/13 06:58:36;;;;;;;9.43;8.52;;;;;;;25.15;35.43;101912.56;4836304;29;20034;-85
2023/05/13 07:01:01;;;;;;;8.73;7.95;;;;;;;25.30;34.17;101909.00;4857577;29;20038;-86
2023/05/13 07:03:27;;;;;;;10.00;9.00;;;;;;;24.78;35.50;101917.06;4837765;29;20498;-88
2023/05/13 07:05:52;;;;;;;9.52;8.20;;;;;;;24.83;35.82;101922.63;4839547;29;20045;-88
2023/05/13 07:08:18;;;;;;;10.88;9.02;;;;;;;24.44;35.60;101911.88;4829252;29;20030;-88
2023/05/13 07:10:43;;;;;;;9.93;8.93;;;;;;;25.01;34.99;101921.31;4827037;29;20034;-90
2023/05/13 07:13:12;;;;;;;10.05;9.02;;;;;;;24.81;35.89;101922.88;4841984;29;20029;-89
2023/05/13 07:15:38;;;;;;;10.25;8.82;;;;;;;25.48;34.85;101930.59;4998790;24;20070;-86
2023/05/13 07:18:03;;;;;;;9.50;8.60;;;;;;;24.93;35.01;101924.59;4808285;29;20467;-88
2023/05/13 07:20:29;;;;;;;10.77;9.20;;;;;;;24.92;34.86;101929.25;4813027;29;20046;-90
2023/05/13 07:22:54;;;;;;;10.15;9.15;;;;;;;24.38;36.11;101920.09;4830067;29;20027;-90
2023/05/13 07:25:19;;;;;;;10.52;8.45;;;;;;;25.13;35.46;101923.84;4827586;29;20031;-87
2023/05/13 07:27:46;;;;;;;10.60;8.57;;;;;;;25.61;34.10;101925.66;4827799;29;20421;-91
2023/05/13 07:30:12;;;;;;;10.10;8.52;;;;;;;25.10;34.95;101918.84;4820039;29;20510;-85
2023/05/13 07:32:39;;;;;;;8.82;8.02;;;;;;;25.40;34.26;101923.66;4824790;29;20038;-92
2023/05/13 07:35:05;;;;;;;11.52;8.65;;;;;;;26.00;34.54;101923.22;4829149;29;20037;-91
2023/05/13 07:37:30;;;;;;;9.27;8.18;;;;;;;26.81;32.80;101924.53;4829903;29;20031;-92
2023/05/13 07:39:56;;;;;;;8.95;7.80;;;;;;;27.23;32.15;101926.00;4828429;29;20430;-91
2023/05/13 07:42:21;;;;;;;9.27;8.38;;;;;;;27.63;31.08;101926.06;4828812;29;20479;-91
2023/05/13 07:44:47;;;;;;;8.50;7.70;;;;;;;27.46;31.98;101926.47;4836998;29;20037;-91
2023/05/13 07:47:12;;;;;;;8.60;7.38;;;;;;;27.65;31.16;101924.69;4847176;29;20093;-91
2023/05/13 07:49:38;;;;;;;8.88;8.00;;;;;;;28.16;30.16;101925.41;4832953;29;20042;-90
2023/05/13 07:52:04;;;;;;;8.75;7.95;;;;;;;28.20;30.12;101925.63;4829015;29;20058;-91
2023/05/13 07:54:30;;;;;;;8.43;7.63;;;;;;;28.73;29.62;101917.34;4822148;29;20031;-92
2023/05/13 07:56:55;;;;;;;9.52;8.00;;;;;;;28.55;29.74;101927.25;4823244;29;20045;-92
2023/05/13 07:59:21;;;;;;;8.10;7.20;;;;;;;28.74;29.62;101921.78;4824703;29;20030;-92
2023/05/13 08:01:46;;;;;;;8.82;7.93;;;;;;;28.77;29.66;101922.31;4831845;29;20359;-92
2023/05/13 08:04:12;;;;;;;8.77;7.90;;;;;;;28.79;29.30;101920.88;4811850;29;20063;-91
2023/05/13 08:06:37;;;;;;;11.75;7.85;;;;;;;29.35;29.34;101918.53;4834280;29;20045;-92
2023/05/13 08:09:02;;;;;;;10.43;7.97;;;;;;;29.91;28.61;101924.34;4815332;29;20046;-88
2023/05/13 08:11:28;;;;;;;10.10;7.93;;;;;;;29.87;28.24;101926.91;4818547;29;20087;-88
2023/05/13 08:13:53;;;;;;;8.40;7.70;;;;;;;29.78;28.03;101918.44;4831840;29;20034;-92
2023/05/13 08:16:19;;;;;;;8.45;7.65;;;;;;;29.93;27.70;101922.09;4829686;29;20151;-90
2023/05/13 08:18:44;;;;;;;8.40;7.45;;;;;;;29.65;28.68;101919.22;4825729;29;20034;-93
2023/05/13 08:21:09;;;;;;;8.95;7.32;;;;;;;29.98;27.77;101919.25;4825949;29;20464;-91
2023/05/13 08:23:35;;;;;;;8.25;7.32;;;;;;;30.63;28.15;101923.09;4819305;29;20023;-90
2023/05/13 08:26:01;;;;;;;7.70;7.00;;;;;;;30.49;27.44;101922.25;4841274;29;20035;-92
2023/05/13 08:28:28;;;;;;;9.05;7.88;;;;;;;30.21;27.78;101922.19;4822293;29;20027;-93
2023/05/13 08:31:01;;;;;;;10.95;8.32;;;;;;;30.35;27.88;101925.00;4829247;29;20031;-93
2023/05/13 08:33:29;;;;;;;8.00;7.15;;;;;;;31.90;26.19;101928.09;4818481;29;20065;-92
2023/05/13 08:35:55;;;;;;;8.80;7.85;;;;;;;30.90;26.99;101926.97;4829550;29;20050;-92
2023/05/13 08:38:21;;;;;;;9.07;7.28;;;;;;;31.18;26.77;101915.88;4830160;29;20106;-92
2023/05/13 08:40:49;;;;;;;7.97;7.18;;;;;;;30.73;27.22;101918.44;4840563;29;20042;-92
2023/05/13 08:43:15;;;;;;;8.40;7.65;;;;;;;30.69;27.34;101913.53;4830029;29;20114;-92
2023/05/13 08:45:40;;;;;;;9.00;7.82;;;;;;;29.49;29.12;101913.88;4828871;29;20035;-91
2023/05/13 08:48:06;;;;;;;8.73;7.93;;;;;;;29.88;29.12;101913.84;4802901;29;20034;-91
2023/05/13 08:50:31;;;;;;;8.90;7.97;;;;;;;31.02;27.65;101911.75;4815133;29;20035;-89
2023/05/13 08:52:57;;;;;;;8.90;8.00;;;;;;;30.49;27.32;101919.47;4812422;29;20037;-89
2023/05/13 08:55:25;;;;;;;7.60;6.97;;;;;;;30.53;27.41;101917.72;4812567;29;20058;-88
2023/05/13 08:57:50;;;;;;;8.15;6.50;;;;;;;31.45;26.14;101928.03;4808531;29;20046;-88
2023/05/13 09:00:16;;;;;;;8.57;7.07;;;;;;;31.09;26.04;101924.09;4816286;29;20117;-88
2023/05/13 09:02:41;;;;;;;8.05;7.10;;;;;;;31.48;25.89;101913.50;4826104;29;20493;-88
2023/05/13 09:05:07;;;;;;;8.50;6.53;;;;;;;31.32;26.40;101917.78;4826361;29;20485;-89
2023/05/13 09:07:36;;;;;;;9.00;7.28;;;;;;;32.01;25.17;101913.91;4826783;29;20034;-88
2023/05/13 09:10:03;;;;;;;7.47;6.75;;;;;;;32.32;25.15;101913.94;4824289;29;20026;-88
2023/05/13 09:12:48;;;;;;;8.20;6.78;;;;;;;31.90;25.44;101913.34;4825085;29;20031;-88
2023/05/13 09:15:22;;;;;;;13.32;6.68;;;;;;;32.55;24.28;101911.09;4825264;29;20405;-88
2023/05/13 09:17:51;;;;;;;7.30;6.05;;;;;;;33.19;23.82;101920.13;4824421;29;20030;-89
2023/05/13 09:20:17;;;;;;;9.73;6.43;;;;;;;33.08;22.41;101906.50;4808177;29;20476;-88
2023/05/13 09:22:53;;;;;;;7.57;5.63;;;;;;;33.16;21.86;101909.63;4822493;29;20027;-87
2023/05/13 09:25:19;;;;;;;6.85;6.25;;;;;;;32.28;23.89;101923.28;4806320;29;20058;-88
2023/05/13 09:27:46;;;;;;;8.38;6.95;;;;;;;32.38;24.55;101911.84;4812155;29;20054;-88
2023/05/13 09:30:12;;;;;;;9.93;6.75;;;;;;;32.97;24.84;101916.34;4821437;29;20050;-87
2023/05/13 09:33:18;;;;;;;11.82;6.72;;;;;;;33.31;24.12;101917.50;4833842;24;20037;-87
2023/05/13 09:39:21;;;;;;;6.75;5.57;;;;;;;34.24;20.93;101906.06;4807141;29;20079;-87
2023/05/13 09:41:46;;;;;;;;;;;;;;;33.84;21.56;101911.94;4806054;29;20050;-88
2023/05/13 09:44:12;;;;;;;7.55;5.50;;;;;;;33.23;22.30;101909.94;4819575;29;20020;-88
2023/05/13 09:46:37;;;;;;;7.60;5.78;;;;;;;34.29;22.36;101908.69;4822950;29;20041;-88
2023/05/13 09:49:08;;;;;;;5.97;5.32;;;;;;;34.50;22.07;101912.75;4825875;29;20053;-87
2023/05/13 09:51:34;;;;;;;6.45;5.80;;;;;;;34.79;21.86;101909.13;4834999;29;20353;-87
2023/05/13 09:57:48;;;;;;;6.00;5.35;;;;;;;32.68;23.71;101895.38;4789677;29;20066;-88
2023/05/13 10:01:05;;;;;;;7.57;5.13;;;;;;;33.33;20.93;101887.31;4794928;29;20498;-86
2023/05/13 10:03:49;;;;;;;6.32;5.50;;;;;;;33.34;22.44;101888.97;4801703;29;20137;-90
2023/05/13 10:06:21;;;;;;;9.02;5.40;;;;;;;33.22;22.73;101880.41;4788761;29;20023;-91
2023/05/13 10:08:46;;;;;;;5.50;4.97;;;;;;;32.80;23.20;101878.03;4792485;29;20438;-88
2023/05/13 10:11:32;;;;;;;9.23;5.30;;;;;;;32.30;22.53;101876.41;4803333;29;20023;-88
2023/05/13 10:13:58;;;;;;;7.30;4.82;;;;;;;32.34;22.41;101874.59;4805945;29;20109;-86
2023/05/13 10:16:33;;;;;;;8.77;4.63;;;;;;;33.07;21.30;101868.59;4804619;29;20090;-88
2023/05/13 10:19:04;;;;;;;;;;;;;;;33.31;22.08;101872.88;4805761;29;20027;-86
2023/05/13 10:21:35;;;;;;;7.35;4.68;;;;;;;33.21;20.87;101860.06;4808210;29;20008;-87
2023/05/13 10:24:13;;;;;;;7.50;4.32;;;;;;;32.87;21.54;101866.41;4804853;29;20041;-87
2023/05/13 10:26:40;;;;;;;8.57;4.90;;;;;;;32.58;22.43;101859.44;4808435;29;20027;-87
2023/05/13 10:29:05;;;;;;;5.00;4.50;;;;;;;32.97;21.58;101852.19;4808334;29;20118;-87
2023/05/13 10:31:58;;;;;;;7.13;4.50;;;;;;;33.29;21.08;101864.00;4793612;29;20051;-85
2023/05/13 10:34:24;;;;;;;5.90;4.57;;;;;;;33.15;21.00;101843.81;4814469;29;20085;-85
2023/05/13 10:37:11;;;;;;;5.20;4.18;;;;;;;33.60;19.62;101849.06;4823530;29;20491;-85
2023/05/13 10:40:12;;;;;;;5.53;4.05;;;;;;;33.83;19.67;101852.44;4790332;29;20049;-85
2023/05/13 10:42:39;;;;;;;4.00;3.60;;;;;;;33.34;19.99;101841.50;4812220;29;20069;-86
2023/05/13 10:45:06;;;;;;;5.55;3.45;;;;;;;32.23;21.43;101850.94;4810196;29;20035;-84
2023/05/13 10:47:32;;;;;;;4.70;4.00;;;;;;;30.43;21.75;101838.16;4809032;29;20110;-85
2023/05/13 10:50:00;;;;;;;5.82;3.78;;;;;;;30.57;21.75;101840.94;4839414;29;20034;-84
2023/05/13 10:52:40;;;;;;;4.68;3.63;;;;;;;30.98;21.17;101828.94;4841900;29;20030;-84
2023/05/13 10:55:14;;;;;;;5.88;3.85;;;;;;;31.21;20.58;101837.38;4810945;29;20038;-86
2023/05/13 10:57:40;;;;;;;8.10;3.67;;;;;;;31.26;21.28;101841.97;4828131;29;20484;-87
2023/05/13 11:00:15;;;;;;;6.35;3.30;;;;;;;32.18;19.31;101847.16;4820745;29;20106;-88
2023/05/13 11:02:40;;;;;;;3.17;2.83;;;;;;;32.28;19.61;101839.69;4824944;29;20061;-87
2023/05/13 11:05:09;;;;;;;3.40;3.10;;;;;;;31.93;18.65;101833.94;4805881;29;20464;-85
2023/05/13 11:07:40;;;;;;;6.15;3.40;;;;;;;32.17;19.44;101839.94;4825448;29;20087;-86
2023/05/13 11:10:30;;;;;;;5.93;3.50;;;;;;;31.62;18.26;101843.88;4807664;29;20033;-87
2023/05/13 11:13:14;;;;;;;4.13;2.88;;;;;;;31.69;18.21;101830.31;4824850;29;20046;-87
2023/05/13 11:16:38;;;;;;;6.40;3.30;;;;;;;32.23;17.28;101837.81;4842129;29;20049;-86
2023/05/13 11:19:18;;;;;;;7.18;3.40;;;;;;;33.11;17.57;101836.09;4822751;29;20038;-87
2023/05/13 11:22:09;;;;;;;4.47;3.17;;;;;;;32.53;16.40;101840.91;5006873;24;20065;-87
2023/05/13 11:25:03;;;;;;;5.97;3.13;;;;;;;32.39;17.14;101843.81;4844483;29;20060;-87
2023/05/13 11:27:31;;;;;;;5.78;2.92;;;;;;;32.72;16.14;101832.25;4822895;29;20459;-87
2023/05/13 11:30:25;;;;;;;6.15;3.38;;;;;;;32.14;16.06;101829.44;4820635;29;20523;-87
2023/05/13 11:33:01;;;;;;;4.57;2.90;;;;;;;31.25;16.07;101815.28;4838170;29;20329;-88
2023/05/13 11:35:42;;;;;;;3.03;2.65;;;;;;;31.18;16.72;101821.28;4830088;29;20031;-87
2023/05/13 11:38:09;;;;;;;4.65;3.20;;;;;;;31.55;17.55;101819.28;4961588;24;20052;-87
2023/05/13 11:41:15;;;;;;;5.15;3.50;;;;;;;31.79;17.72;101823.69;4816275;29;20125;-88
2023/05/13 11:43:41;;;;;;;4.47;3.45;;;;;;;32.64;17.35;101814.38;4840197;29;20038;-88